sensor_id;sensor_type;location;lat;lon;timestamp;pressure;altitude;pressure_sealevel;temperature
73673;BMP280;61972;19.480;-99.240;2024-02-21T00:02:22;78073.66;;;22.80
73673;BMP280;61972;19.480;-99.240;2024-02-21T00:04:48;78068.47;;;22.80
73673;BMP280;61972;19.480;-99.240;2024-02-21T00:07:14;78078.88;;;22.80
73673;BMP280;61972;19.480;-99.240;2024-02-21T00:09:40;78071.06;;;22.80
73673;BMP280;61972;19.480;-99.240;2024-02-21T00:12:09;78074.25;;;22.81
73673;BMP280;61972;19.480;-99.240;2024-02-21T00:14:35;78084.66;;;22.81
73673;BMP280;61972;19.480;-99.240;2024-02-21T00:17:01;78079.09;;;22.83
73673;BMP280;61972;19.480;-99.240;2024-02-21T00:19:30;78084.84;;;22.83
73673;BMP280;61972;19.480;-99.240;2024-02-21T00:21:58;78082.81;;;22.84
73673;BMP280;61972;19.480;-99.240;2024-02-21T00:24:24;78087.47;;;22.83
73673;BMP280;61972;19.480;-99.240;2024-02-21T00:26:50;78087.47;;;22.83
73673;BMP280;61972;19.480;-99.240;2024-02-21T00:29:16;78080.00;;;22.81
73673;BMP280;61972;19.480;-99.240;2024-02-21T00:31:43;78084.84;;;22.83
73673;BMP280;61972;19.480;-99.240;2024-02-21T00:34:10;78090.06;;;22.83
73673;BMP280;61972;19.480;-99.240;2024-02-21T00:36:38;78096.41;;;22.84
73673;BMP280;61972;19.480;-99.240;2024-02-21T00:39:04;78097.88;;;22.83
73673;BMP280;61972;19.480;-99.240;2024-02-21T00:41:30;78096.41;;;22.84
73673;BMP280;61972;19.480;-99.240;2024-02-21T00:43:56;78104.22;;;22.84
73673;BMP280;61972;19.480;-99.240;2024-02-21T00:46:23;78106.84;;;22.84
73673;BMP280;61972;19.480;-99.240;2024-02-21T00:48:52;78110.56;;;22.85
73673;BMP280;61972;19.480;-99.240;2024-02-21T00:51:18;78106.47;;;22.86
73673;BMP280;61972;19.480;-99.240;2024-02-21T00:53:44;78114.28;;;22.86
73673;BMP280;61972;19.480;-99.240;2024-02-21T00:56:10;78112.81;;;22.87
73673;BMP280;61972;19.480;-99.240;2024-02-21T00:58:37;78119.72;;;22.89
73673;BMP280;61972;19.480;-99.240;2024-02-21T01:01:06;78116.16;;;22.90
73673;BMP280;61972;19.480;-99.240;2024-02-21T01:03:32;78126.59;;;22.90
73673;BMP280;61972;19.480;-99.240;2024-02-21T01:05:58;78128.84;;;22.92
73673;BMP280;61972;19.480;-99.240;2024-02-21T01:08:24;78145.06;;;22.93
73673;BMP280;61972;19.480;-99.240;2024-02-21T01:10:50;78150.81;;;22.94
73673;BMP280;61972;19.480;-99.240;2024-02-21T01:13:17;78145.63;;;22.94
73673;BMP280;61972;19.480;-99.240;2024-02-21T01:15:43;78150.81;;;22.94
73673;BMP280;61972;19.480;-99.240;2024-02-21T01:18:09;78145.63;;;22.94
73673;BMP280;61972;19.480;-99.240;2024-02-21T01:20:38;78140.97;;;22.94
73673;BMP280;61972;19.480;-99.240;2024-02-21T01:23:04;78150.81;;;22.94
73673;BMP280;61972;19.480;-99.240;2024-02-21T01:25:30;78159.19;;;22.94
73673;BMP280;61972;19.480;-99.240;2024-02-21T01:27:56;78159.75;;;22.95
73673;BMP280;61972;19.480;-99.240;2024-02-21T01:30:23;78154.53;;;22.95
73673;BMP280;61972;19.480;-99.240;2024-02-21T01:32:49;78163.50;;;22.96
73673;BMP280;61972;19.480;-99.240;2024-02-21T01:35:15;78173.91;;;22.96
73673;BMP280;61972;19.480;-99.240;2024-02-21T01:37:53;78164.97;;;22.95
73673;BMP280;61972;19.480;-99.240;2024-02-21T01:40:19;78173.34;;;22.95
73673;BMP280;61972;19.480;-99.240;2024-02-21T01:42:45;78172.78;;;22.95
73673;BMP280;61972;19.480;-99.240;2024-02-21T01:45:13;78184.91;;;22.96
73673;BMP280;61972;19.480;-99.240;2024-02-21T01:47:39;78184.34;;;22.96
73673;BMP280;61972;19.480;-99.240;2024-02-21T01:50:07;78189.53;;;22.96
73673;BMP280;61972;19.480;-99.240;2024-02-21T01:52:33;78197.38;;;22.96
73673;BMP280;61972;19.480;-99.240;2024-02-21T01:55:01;78194.75;;;22.96
73673;BMP280;61972;19.480;-99.240;2024-02-21T01:57:27;78200.53;;;22.96
73673;BMP280;61972;19.480;-99.240;2024-02-21T01:59:54;78205.19;;;22.96
73673;BMP280;61972;19.480;-99.240;2024-02-21T02:02:21;78213.56;;;22.96
73673;BMP280;61972;19.480;-99.240;2024-02-21T02:04:49;78215.03;;;22.95
73673;BMP280;61972;19.480;-99.240;2024-02-21T02:07:15;78224.91;;;22.95
73673;BMP280;61972;19.480;-99.240;2024-02-21T02:09:42;78230.09;;;22.95
73673;BMP280;61972;19.480;-99.240;2024-02-21T02:12:08;78229.53;;;22.94
73673;BMP280;61972;19.480;-99.240;2024-02-21T02:14:34;78235.31;;;22.95
73673;BMP280;61972;19.480;-99.240;2024-02-21T02:17:00;78237.91;;;22.95
73673;BMP280;61972;19.480;-99.240;2024-02-21T02:19:27;78242.56;;;22.94
73673;BMP280;61972;19.480;-99.240;2024-02-21T02:22:01;78245.75;;;22.95
73673;BMP280;61972;19.480;-99.240;2024-02-21T02:24:32;78251.53;;;22.95
73673;BMP280;61972;19.480;-99.240;2024-02-21T02:26:58;78253.56;;;22.95
73673;BMP280;61972;19.480;-99.240;2024-02-21T02:29:24;78255.28;;;22.96
73673;BMP280;61972;19.480;-99.240;2024-02-21T02:31:51;78251.53;;;22.95
73673;BMP280;61972;19.480;-99.240;2024-02-21T02:34:17;78258.44;;;22.97
73673;BMP280;61972;19.480;-99.240;2024-02-21T02:36:43;78261.94;;;22.95
73673;BMP280;61972;19.480;-99.240;2024-02-21T02:39:09;78264.78;;;22.98
73673;BMP280;61972;19.480;-99.240;2024-02-21T02:41:38;78277.22;;;22.97
73673;BMP280;61972;19.480;-99.240;2024-02-21T02:44:04;78271.09;;;22.99
73673;BMP280;61972;19.480;-99.240;2024-02-21T02:46:31;78281.53;;;22.99
73673;BMP280;61972;19.480;-99.240;2024-02-21T02:48:57;78286.75;;;22.99
73673;BMP280;61972;19.480;-99.240;2024-02-21T02:51:23;78286.75;;;22.99
73673;BMP280;61972;19.480;-99.240;2024-02-21T02:53:49;78289.34;;;22.99
73673;BMP280;61972;19.480;-99.240;2024-02-21T02:56:15;78294.56;;;22.99
73673;BMP280;61972;19.480;-99.240;2024-02-21T02:58:43;78298.28;;;23.00
73673;BMP280;61972;19.480;-99.240;2024-02-21T03:01:09;78297.72;;;22.99
73673;BMP280;61972;19.480;-99.240;2024-02-21T03:03:35;78300.31;;;22.99
73673;BMP280;61972;19.480;-99.240;2024-02-21T03:06:02;78300.31;;;22.99
73673;BMP280;61972;19.480;-99.240;2024-02-21T03:08:28;78303.88;;;22.98
73673;BMP280;61972;19.480;-99.240;2024-02-21T03:10:54;78301.78;;;22.98
73673;BMP280;61972;19.480;-99.240;2024-02-21T03:13:20;78306.47;;;22.98
73673;BMP280;61972;19.480;-99.240;2024-02-21T03:15:47;78305.88;;;22.97
73673;BMP280;61972;19.480;-99.240;2024-02-21T03:18:13;78305.34;;;22.97
73673;BMP280;61972;19.480;-99.240;2024-02-21T03:20:42;78309.41;;;22.96
73673;BMP280;61972;19.480;-99.240;2024-02-21T03:23:08;78304.19;;;22.96
73673;BMP280;61972;19.480;-99.240;2024-02-21T03:25:36;78322.44;;;22.96
73673;BMP280;61972;19.480;-99.240;2024-02-21T03:28:03;78315.53;;;22.94
73673;BMP280;61972;19.480;-99.240;2024-02-21T03:30:29;78317.59;;;22.94
73673;BMP280;61972;19.480;-99.240;2024-02-21T03:32:58;78317.59;;;22.94
73673;BMP280;61972;19.480;-99.240;2024-02-21T03:35:24;78313.84;;;22.92
73673;BMP280;61972;19.480;-99.240;2024-02-21T03:37:53;78319.97;;;22.91
73673;BMP280;61972;19.480;-99.240;2024-02-21T03:40:19;78325.75;;;22.91
73673;BMP280;61972;19.480;-99.240;2024-02-21T03:42:45;78330.38;;;22.91
73673;BMP280;61972;19.480;-99.240;2024-02-21T03:45:11;78331.84;;;22.90
73673;BMP280;61972;19.480;-99.240;2024-02-21T03:47:37;78337.06;;;22.90
73673;BMP280;61972;19.480;-99.240;2024-02-21T03:50:05;78340.22;;;22.90
73673;BMP280;61972;19.480;-99.240;2024-02-21T03:52:31;78340.03;;;22.88
73673;BMP280;61972;19.480;-99.240;2024-02-21T03:54:58;78342.09;;;22.87
73673;BMP280;61972;19.480;-99.240;2024-02-21T03:57:24;78343.56;;;22.86
73673;BMP280;61972;19.480;-99.240;2024-02-21T03:59:51;78351.94;;;22.87
73673;BMP280;61972;19.480;-99.240;2024-02-21T04:02:18;78351.38;;;22.86
73673;BMP280;61972;19.480;-99.240;2024-02-21T04:04:44;78355.47;;;22.85
73673;BMP280;61972;19.480;-99.240;2024-02-21T04:07:14;78348.22;;;22.86
73673;BMP280;61972;19.480;-99.240;2024-02-21T04:13:05;78353.19;;;22.83
73673;BMP280;61972;19.480;-99.240;2024-02-21T04:15:32;78347.97;;;22.83
73673;BMP280;61972;19.480;-99.240;2024-02-21T04:17:58;78355.59;;;22.81
73673;BMP280;61972;19.480;-99.240;2024-02-21T04:20:24;78356.16;;;22.81
73673;BMP280;61972;19.480;-99.240;2024-02-21T04:22:50;78358.19;;;22.81
73673;BMP280;61972;19.480;-99.240;2024-02-21T04:25:16;78355.00;;;22.80
73673;BMP280;61972;19.480;-99.240;2024-02-21T04:27:43;78359.09;;;22.79
73673;BMP280;61972;19.480;-99.240;2024-02-21T04:30:09;78361.13;;;22.79
73673;BMP280;61972;19.480;-99.240;2024-02-21T04:32:35;78363.19;;;22.78
73673;BMP280;61972;19.480;-99.240;2024-02-21T04:35:02;78367.25;;;22.77
73673;BMP280;61972;19.480;-99.240;2024-02-21T04:37:50;78358.88;;;22.77
73673;BMP280;61972;19.480;-99.240;2024-02-21T04:40:17;78366.13;;;22.76
73673;BMP280;61972;19.480;-99.240;2024-02-21T04:42:43;78358.88;;;22.77
73673;BMP280;61972;19.480;-99.240;2024-02-21T04:45:09;78365.00;;;22.75
73673;BMP280;61972;19.480;-99.240;2024-02-21T04:47:36;78366.13;;;22.76
73673;BMP280;61972;19.480;-99.240;2024-02-21T04:50:02;78372.47;;;22.77
73673;BMP280;61972;19.480;-99.240;2024-02-21T04:52:28;78369.50;;;22.79
73673;BMP280;61972;19.480;-99.240;2024-02-21T04:54:56;78368.25;;;22.83
73673;BMP280;61972;19.480;-99.240;2024-02-21T04:57:22;78374.81;;;22.86
73673;BMP280;61972;19.480;-99.240;2024-02-21T04:59:48;78370.59;;;22.92
73673;BMP280;61972;19.480;-99.240;2024-02-21T05:02:14;78372.16;;;22.98
73673;BMP280;61972;19.480;-99.240;2024-02-21T05:04:41;78370.56;;;23.04
73673;BMP280;61972;19.480;-99.240;2024-02-21T05:07:08;78369.16;;;23.12
73673;BMP280;61972;19.480;-99.240;2024-02-21T05:09:37;78366.63;;;23.19
73673;BMP280;61972;19.480;-99.240;2024-02-21T05:12:04;78370.47;;;23.27
73673;BMP280;61972;19.480;-99.240;2024-02-21T05:14:36;78371.66;;;23.36
73673;BMP280;61972;19.480;-99.240;2024-02-21T05:17:04;78372.84;;;23.44
73673;BMP280;61972;19.480;-99.240;2024-02-21T05:19:30;78369.19;;;23.50
73673;BMP280;61972;19.480;-99.240;2024-02-21T05:21:56;78373.34;;;23.56
73673;BMP280;61972;19.480;-99.240;2024-02-21T05:24:22;78370.81;;;23.63
73673;BMP280;61972;19.480;-99.240;2024-02-21T05:26:48;78373.13;;;23.73
73673;BMP280;61972;19.480;-99.240;2024-02-21T05:29:17;78373.97;;;23.83
73673;BMP280;61972;19.480;-99.240;2024-02-21T05:32:03;78368.50;;;23.99
73673;BMP280;61972;19.480;-99.240;2024-02-21T05:34:29;78371.06;;;24.18
73673;BMP280;61972;19.480;-99.240;2024-02-21T05:36:56;78369.91;;;24.36
73673;BMP280;61972;19.480;-99.240;2024-02-21T05:39:23;78372.69;;;24.58
73673;BMP280;61972;19.480;-99.240;2024-02-21T05:41:52;78370.53;;;24.78
73673;BMP280;61972;19.480;-99.240;2024-02-21T05:44:18;78365.44;;;24.99
73673;BMP280;61972;19.480;-99.240;2024-02-21T05:46:44;78368.50;;;25.19
73673;BMP280;61972;19.480;-99.240;2024-02-21T05:49:11;78366.88;;;25.39
73673;BMP280;61972;19.480;-99.240;2024-02-21T05:51:41;78366.22;;;25.57
73673;BMP280;61972;19.480;-99.240;2024-02-21T05:54:07;78371.09;;;25.74
73673;BMP280;61972;19.480;-99.240;2024-02-21T05:56:33;78361.59;;;25.87
73673;BMP280;61972;19.480;-99.240;2024-02-21T05:58:59;78365.34;;;25.95
73673;BMP280;61972;19.480;-99.240;2024-02-21T06:01:25;78361.22;;;26.03
73673;BMP280;61972;19.480;-99.240;2024-02-21T06:03:51;78361.59;;;26.08
73673;BMP280;61972;19.480;-99.240;2024-02-21T06:06:18;78359.75;;;26.11
73673;BMP280;61972;19.480;-99.240;2024-02-21T06:08:44;78348.88;;;26.13
73673;BMP280;61972;19.480;-99.240;2024-02-21T06:11:10;78361.63;;;26.15
73673;BMP280;61972;19.480;-99.240;2024-02-21T06:13:38;78357.50;;;26.16
73673;BMP280;61972;19.480;-99.240;2024-02-21T06:16:06;78359.75;;;26.18
73673;BMP280;61972;19.480;-99.240;2024-02-21T06:18:35;78358.81;;;26.20
73673;BMP280;61972;19.480;-99.240;2024-02-21T06:21:02;78356.75;;;26.20
73673;BMP280;61972;19.480;-99.240;2024-02-21T06:23:28;78355.63;;;26.19
73673;BMP280;61972;19.480;-99.240;2024-02-21T06:25:54;78357.13;;;26.18
73673;BMP280;61972;19.480;-99.240;2024-02-21T06:28:21;78362.75;;;26.16
73673;BMP280;61972;19.480;-99.240;2024-02-21T06:30:47;78357.31;;;26.14
73673;BMP280;61972;19.480;-99.240;2024-02-21T06:33:13;78359.00;;;26.08
73673;BMP280;61972;19.480;-99.240;2024-02-21T06:35:39;78362.38;;;26.04
73673;BMP280;61972;19.480;-99.240;2024-02-21T06:38:07;78358.22;;;25.98
73673;BMP280;61972;19.480;-99.240;2024-02-21T06:40:33;78351.13;;;25.94
73673;BMP280;61972;19.480;-99.240;2024-02-21T06:43:04;78358.59;;;25.89
73673;BMP280;61972;19.480;-99.240;2024-02-21T06:45:30;78348.88;;;25.84
73673;BMP280;61972;19.480;-99.240;2024-02-21T06:48:00;78353.69;;;25.79
73673;BMP280;61972;19.480;-99.240;2024-02-21T06:50:26;78355.19;;;25.71
73673;BMP280;61972;19.480;-99.240;2024-02-21T06:52:52;78352.19;;;25.66
73673;BMP280;61972;19.480;-99.240;2024-02-21T06:55:18;78348.63;;;25.60
73673;BMP280;61972;19.480;-99.240;2024-02-21T06:57:44;78351.78;;;25.54
73673;BMP280;61972;19.480;-99.240;2024-02-21T07:00:11;78349.91;;;25.50
73673;BMP280;61972;19.480;-99.240;2024-02-21T07:02:37;78345.78;;;25.43
73673;BMP280;61972;19.480;-99.240;2024-02-21T07:05:04;78346.88;;;25.37
73673;BMP280;61972;19.480;-99.240;2024-02-21T07:07:30;78344.47;;;25.33
73673;BMP280;61972;19.480;-99.240;2024-02-21T07:09:59;78342.56;;;25.28
73673;BMP280;61972;19.480;-99.240;2024-02-21T07:12:26;78342.72;;;25.24
73673;BMP280;61972;19.480;-99.240;2024-02-21T07:14:52;78342.91;;;25.19
73673;BMP280;61972;19.480;-99.240;2024-02-21T07:17:18;78349.78;;;25.14
73673;BMP280;61972;19.480;-99.240;2024-02-21T07:19:46;78349.41;;;25.08
73673;BMP280;61972;19.480;-99.240;2024-02-21T07:22:13;78354.22;;;25.03
73673;BMP280;61972;19.480;-99.240;2024-02-21T07:24:42;78346.00;;;24.98
73673;BMP280;61972;19.480;-99.240;2024-02-21T07:27:08;78348.03;;;24.90
73673;BMP280;61972;19.480;-99.240;2024-02-21T07:29:34;78345.91;;;24.84
73673;BMP280;61972;19.480;-99.240;2024-02-21T07:32:00;78352.22;;;24.78
73673;BMP280;61972;19.480;-99.240;2024-02-21T07:34:26;78350.34;;;24.73
73673;BMP280;61972;19.480;-99.240;2024-02-21T07:36:53;78354.25;;;24.70
73673;BMP280;61972;19.480;-99.240;2024-02-21T07:39:19;78354.41;;;24.65
73673;BMP280;61972;19.480;-99.240;2024-02-21T07:41:45;78346.75;;;24.61
73673;BMP280;61972;19.480;-99.240;2024-02-21T07:44:15;78353.25;;;24.57
73673;BMP280;61972;19.480;-99.240;2024-02-21T07:46:41;78341.81;;;24.51
73673;BMP280;61972;19.480;-99.240;2024-02-21T07:49:07;78341.63;;;24.49
73673;BMP280;61972;19.480;-99.240;2024-02-21T07:51:34;78337.13;;;24.45
73673;BMP280;61972;19.480;-99.240;2024-02-21T07:54:02;78337.31;;;24.40
73673;BMP280;61972;19.480;-99.240;2024-02-21T07:56:30;78336.50;;;24.37
73673;BMP280;61972;19.480;-99.240;2024-02-21T07:58:56;78340.41;;;24.33
73673;BMP280;61972;19.480;-99.240;2024-02-21T08:01:25;78333.84;;;24.30
73673;BMP280;61972;19.480;-99.240;2024-02-21T08:03:51;78338.31;;;24.27
73673;BMP280;61972;19.480;-99.240;2024-02-21T08:06:18;78329.72;;;24.24
73673;BMP280;61972;19.480;-99.240;2024-02-21T08:08:44;78334.75;;;24.21
73673;BMP280;61972;19.480;-99.240;2024-02-21T08:11:10;78332.84;;;24.17
73673;BMP280;61972;19.480;-99.240;2024-02-21T08:13:36;78329.47;;;24.14
73673;BMP280;61972;19.480;-99.240;2024-02-21T08:16:02;78326.09;;;24.11
73673;BMP280;61972;19.480;-99.240;2024-02-21T08:18:29;78322.72;;;24.08
73673;BMP280;61972;19.480;-99.240;2024-02-21T08:20:55;78321.00;;;24.06
73673;BMP280;61972;19.480;-99.240;2024-02-21T08:23:24;78315.94;;;24.02
73673;BMP280;61972;19.480;-99.240;2024-02-21T08:25:50;78319.50;;;24.00
73673;BMP280;61972;19.480;-99.240;2024-02-21T08:28:16;78311.44;;;23.97
73673;BMP280;61972;19.480;-99.240;2024-02-21T08:30:42;78320.22;;;23.96
73673;BMP280;61972;19.480;-99.240;2024-02-21T08:33:15;78314.19;;;23.93
73673;BMP280;61972;19.480;-99.240;2024-02-21T08:35:42;78314.00;;;23.90
73673;BMP280;61972;19.480;-99.240;2024-02-21T08:38:08;78309.69;;;23.89
73673;BMP280;61972;19.480;-99.240;2024-02-21T08:40:34;78308.94;;;23.86
73673;BMP280;61972;19.480;-99.240;2024-02-21T08:43:01;78311.31;;;23.83
73673;BMP280;61972;19.480;-99.240;2024-02-21T08:45:30;78313.94;;;23.83
73673;BMP280;61972;19.480;-99.240;2024-02-21T08:47:56;78310.56;;;23.80
73673;BMP280;61972;19.480;-99.240;2024-02-21T08:50:25;78305.16;;;23.77
73673;BMP280;61972;19.480;-99.240;2024-02-21T08:52:54;78304.00;;;23.76
73673;BMP280;61972;19.480;-99.240;2024-02-21T08:55:20;78300.66;;;23.73
73673;BMP280;61972;19.480;-99.240;2024-02-21T08:57:46;78301.53;;;23.72
73673;BMP280;61972;19.480;-99.240;2024-02-21T09:00:19;78292.59;;;23.71
73673;BMP280;61972;19.480;-99.240;2024-02-21T09:02:52;78295.00;;;23.68
73673;BMP280;61972;19.480;-99.240;2024-02-21T09:05:21;78288.09;;;23.67
73673;BMP280;61972;19.480;-99.240;2024-02-21T09:07:47;78288.47;;;23.64
73673;BMP280;61972;19.480;-99.240;2024-02-21T09:10:13;78293.69;;;23.64
73673;BMP280;61972;19.480;-99.240;2024-02-21T09:12:40;78293.47;;;23.62
73673;BMP280;61972;19.480;-99.240;2024-02-21T09:15:06;78285.41;;;23.59
73673;BMP280;61972;19.480;-99.240;2024-02-21T09:17:32;78287.47;;;23.59
73673;BMP280;61972;19.480;-99.240;2024-02-21T09:19:58;78282.63;;;23.57
73673;BMP280;61972;19.480;-99.240;2024-02-21T09:22:29;78286.69;;;23.56
73673;BMP280;61972;19.480;-99.240;2024-02-21T09:24:55;78277.75;;;23.55
73673;BMP280;61972;19.480;-99.240;2024-02-21T09:27:21;78279.81;;;23.54
73673;BMP280;61972;19.480;-99.240;2024-02-21T09:29:48;78278.09;;;23.53
73673;BMP280;61972;19.480;-99.240;2024-02-21T09:32:14;78275.84;;;23.51
73673;BMP280;61972;19.480;-99.240;2024-02-21T09:34:40;78274.16;;;23.49
73673;BMP280;61972;19.480;-99.240;2024-02-21T09:37:06;78267.81;;;23.48
73673;BMP280;61972;19.480;-99.240;2024-02-21T09:39:32;78265.56;;;23.46
73673;BMP280;61972;19.480;-99.240;2024-02-21T09:42:05;78264.44;;;23.45
73673;BMP280;61972;19.480;-99.240;2024-02-21T09:44:36;78267.41;;;23.43
73673;BMP280;61972;19.480;-99.240;2024-02-21T09:47:34;78265.72;;;23.41
73673;BMP280;61972;19.480;-99.240;2024-02-21T09:50:05;78269.25;;;23.40
73673;BMP280;61972;19.480;-99.240;2024-02-21T09:52:35;78267.00;;;23.38
73673;BMP280;61972;19.480;-99.240;2024-02-21T09:55:03;78268.47;;;23.37
73673;BMP280;61972;19.480;-99.240;2024-02-21T09:57:31;78272.56;;;23.36
73673;BMP280;61972;19.480;-99.240;2024-02-21T09:59:57;78267.69;;;23.34
73673;BMP280;61972;19.480;-99.240;2024-02-21T10:02:24;78271.78;;;23.33
73673;BMP280;61972;19.480;-99.240;2024-02-21T10:04:51;78267.50;;;23.31
73673;BMP280;61972;19.480;-99.240;2024-02-21T10:07:17;78264.31;;;23.31
73673;BMP280;61972;19.480;-99.240;2024-02-21T10:09:48;78268.41;;;23.30
73673;BMP280;61972;19.480;-99.240;2024-02-21T10:12:17;78271.38;;;23.27
73673;BMP280;61972;19.480;-99.240;2024-02-21T10:14:44;78272.28;;;23.26
73673;BMP280;61972;19.480;-99.240;2024-02-21T10:17:16;78270.03;;;23.24
73673;BMP280;61972;19.480;-99.240;2024-02-21T10:19:44;78272.66;;;23.24
73673;BMP280;61972;19.480;-99.240;2024-02-21T10:22:10;78270.41;;;23.22
73673;BMP280;61972;19.480;-99.240;2024-02-21T10:24:37;78264.97;;;23.19
73673;BMP280;61972;19.480;-99.240;2024-02-21T10:27:05;78269.63;;;23.19
73673;BMP280;61972;19.480;-99.240;2024-02-21T10:29:37;78267.91;;;23.17
73673;BMP280;61972;19.480;-99.240;2024-02-21T10:34:42;78268.28;;;23.15
73673;BMP280;61972;19.480;-99.240;2024-02-21T10:37:09;78263.44;;;23.13
73673;BMP280;61972;19.480;-99.240;2024-02-21T10:39:40;78269.00;;;23.11
73673;BMP280;61972;19.480;-99.240;2024-02-21T10:42:06;78268.41;;;23.10
73673;BMP280;61972;19.480;-99.240;2024-02-21T10:44:37;78267.28;;;23.09
73673;BMP280;61972;19.480;-99.240;2024-02-21T10:47:10;78265.06;;;23.07
73673;BMP280;61972;19.480;-99.240;2024-02-21T10:49:40;78269.13;;;23.06
73673;BMP280;61972;19.480;-99.240;2024-02-21T10:55:03;78269.81;;;23.02
73673;BMP280;61972;19.480;-99.240;2024-02-21T10:57:31;78269.28;;;23.02
73673;BMP280;61972;19.480;-99.240;2024-02-21T10:59:59;78267.56;;;23.00
73673;BMP280;61972;19.480;-99.240;2024-02-21T11:02:26;78261.81;;;23.00
73673;BMP280;61972;19.480;-99.240;2024-02-21T11:04:55;78271.66;;;22.99
73673;BMP280;61972;19.480;-99.240;2024-02-21T11:07:23;78272.59;;;22.98
73673;BMP280;61972;19.480;-99.240;2024-02-21T11:09:53;78281.88;;;22.97
73673;BMP280;61972;19.480;-99.240;2024-02-21T11:12:23;78277.59;;;22.95
73673;BMP280;61972;19.480;-99.240;2024-02-21T11:14:49;78272.72;;;22.93
73673;BMP280;61972;19.480;-99.240;2024-02-21T11:17:19;78271.59;;;22.92
73673;BMP280;61972;19.480;-99.240;2024-02-21T11:19:47;78278.84;;;22.91
73673;BMP280;61972;19.480;-99.240;2024-02-21T11:22:20;78277.69;;;22.90
73673;BMP280;61972;19.480;-99.240;2024-02-21T11:24:50;78279.22;;;22.89
73673;BMP280;61972;19.480;-99.240;2024-02-21T11:27:19;78284.75;;;22.87
73673;BMP280;61972;19.480;-99.240;2024-02-21T11:29:48;78281.03;;;22.86
73673;BMP280;61972;19.480;-99.240;2024-02-21T11:32:19;78282.50;;;22.85
73673;BMP280;61972;19.480;-99.240;2024-02-21T11:34:59;78291.81;;;22.84
73673;BMP280;61972;19.480;-99.240;2024-02-21T11:37:34;78291.03;;;22.81
73673;BMP280;61972;19.480;-99.240;2024-02-21T11:40:02;78289.88;;;22.80
73673;BMP280;61972;19.480;-99.240;2024-02-21T11:42:30;78291.34;;;22.79
73673;BMP280;61972;19.480;-99.240;2024-02-21T11:44:57;78290.25;;;22.78
73673;BMP280;61972;19.480;-99.240;2024-02-21T11:47:23;78289.69;;;22.78
73673;BMP280;61972;19.480;-99.240;2024-02-21T11:49:49;78285.38;;;22.76
73673;BMP280;61972;19.480;-99.240;2024-02-21T11:52:21;78295.59;;;22.73
73673;BMP280;61972;19.480;-99.240;2024-02-21T11:54:51;78299.66;;;22.72
73673;BMP280;61972;19.480;-99.240;2024-02-21T11:57:18;78293.31;;;22.71
73673;BMP280;61972;19.480;-99.240;2024-02-21T11:59:45;78296.84;;;22.70
73673;BMP280;61972;19.480;-99.240;2024-02-21T12:02:13;78300.38;;;22.68
73673;BMP280;61972;19.480;-99.240;2024-02-21T12:04:39;78297.00;;;22.65
73673;BMP280;61972;19.480;-99.240;2024-02-21T12:07:06;78291.19;;;22.65
73673;BMP280;61972;19.480;-99.240;2024-02-21T12:09:34;78302.53;;;22.63
73673;BMP280;61972;19.480;-99.240;2024-02-21T12:12:07;78298.25;;;22.62
73673;BMP280;61972;19.480;-99.240;2024-02-21T12:14:36;78299.72;;;22.61
73673;BMP280;61972;19.480;-99.240;2024-02-21T12:17:03;78302.69;;;22.59
73673;BMP280;61972;19.480;-99.240;2024-02-21T12:19:35;78304.16;;;22.58
73673;BMP280;61972;19.480;-99.240;2024-02-21T12:22:01;78309.69;;;22.55
73673;BMP280;61972;19.480;-99.240;2024-02-21T12:24:31;78310.03;;;22.53
73673;BMP280;61972;19.480;-99.240;2024-02-21T12:26:57;78306.66;;;22.50
73673;BMP280;61972;19.480;-99.240;2024-02-21T12:29:24;78305.53;;;22.49
73673;BMP280;61972;19.480;-99.240;2024-02-21T12:31:51;78304.41;;;22.48
73673;BMP280;61972;19.480;-99.240;2024-02-21T12:34:18;78305.31;;;22.47
73673;BMP280;61972;19.480;-99.240;2024-02-21T12:36:45;78306.22;;;22.45
73673;BMP280;61972;19.480;-99.240;2024-02-21T12:39:14;78310.31;;;22.44
73673;BMP280;61972;19.480;-99.240;2024-02-21T12:41:42;78309.16;;;22.43
73673;BMP280;61972;19.480;-99.240;2024-02-21T12:44:10;78309.16;;;22.43
73673;BMP280;61972;19.480;-99.240;2024-02-21T12:46:40;78319.59;;;22.43
73673;BMP280;61972;19.480;-99.240;2024-02-21T12:49:06;78313.25;;;22.42
73673;BMP280;61972;19.480;-99.240;2024-02-21T12:51:35;78318.25;;;22.40
73673;BMP280;61972;19.480;-99.240;2024-02-21T12:54:02;78324.00;;;22.40
73673;BMP280;61972;19.480;-99.240;2024-02-21T12:56:30;78324.94;;;22.39
73673;BMP280;61972;19.480;-99.240;2024-02-21T12:58:57;78318.59;;;22.37
73673;BMP280;61972;19.480;-99.240;2024-02-21T13:01:23;78324.72;;;22.36
73673;BMP280;61972;19.480;-99.240;2024-02-21T13:03:49;78335.47;;;22.34
73673;BMP280;61972;19.480;-99.240;2024-02-21T13:06:16;78330.59;;;22.32
73673;BMP280;61972;19.480;-99.240;2024-02-21T13:08:42;78334.69;;;22.31
73673;BMP280;61972;19.480;-99.240;2024-02-21T13:11:10;78340.81;;;22.29
73673;BMP280;61972;19.480;-99.240;2024-02-21T13:13:39;78336.84;;;22.26
73673;BMP280;61972;19.480;-99.240;2024-02-21T13:16:06;78335.69;;;22.25
73673;BMP280;61972;19.480;-99.240;2024-02-21T13:18:32;78339.22;;;22.23
73673;BMP280;61972;19.480;-99.240;2024-02-21T13:21:00;78336.41;;;22.21
73673;BMP280;61972;19.480;-99.240;2024-02-21T13:23:26;78339.34;;;22.18
73673;BMP280;61972;19.480;-99.240;2024-02-21T13:25:52;78340.25;;;22.17
73673;BMP280;61972;19.480;-99.240;2024-02-21T13:28:18;78342.63;;;22.14
73673;BMP280;61972;19.480;-99.240;2024-02-21T13:30:44;78344.09;;;22.13
73673;BMP280;61972;19.480;-99.240;2024-02-21T13:33:11;78345.94;;;22.10
73673;BMP280;61972;19.480;-99.240;2024-02-21T13:35:37;78347.97;;;22.10
73673;BMP280;61972;19.480;-99.240;2024-02-21T13:38:04;78347.72;;;22.07
73673;BMP280;61972;19.480;-99.240;2024-02-21T13:40:30;78345.47;;;22.05
73673;BMP280;61972;19.480;-99.240;2024-02-21T13:42:57;78354.75;;;22.04
73673;BMP280;61972;19.480;-99.240;2024-02-21T13:45:26;78351.94;;;22.01
73673;BMP280;61972;19.480;-99.240;2024-02-21T13:47:52;78349.09;;;21.99
73673;BMP280;61972;19.480;-99.240;2024-02-21T13:50:18;78358.38;;;21.98
73673;BMP280;61972;19.480;-99.240;2024-02-21T13:52:45;78356.13;;;21.96
73673;BMP280;61972;19.480;-99.240;2024-02-21T13:55:15;78360.19;;;21.95